sensor_id;sensor_type;location;lat;lon;timestamp;P1;durP1;ratioP1;P2;durP2;ratioP2
7931;SDS011;4011;49.424;10.894;2023-02-15T00:05:09;5.22;;;3.85;;
7931;SDS011;4011;49.424;10.894;2023-02-15T00:10:30;5.65;;;3.95;;
7931;SDS011;4011;49.424;10.894;2023-02-15T00:15:53;5.20;;;3.63;;
7931;SDS011;4011;49.424;10.894;2023-02-15T00:21:16;4.32;;;3.42;;
7931;SDS011;4011;49.424;10.894;2023-02-15T00:26:37;5.15;;;3.58;;
7931;SDS011;4011;49.424;10.894;2023-02-15T00:32:02;5.60;;;3.67;;
7931;SDS011;4011;49.424;10.894;2023-02-15T00:37:25;5.05;;;3.60;;
7931;SDS011;4011;49.424;10.894;2023-02-15T00:42:46;4.97;;;3.70;;
7931;SDS011;4011;49.424;10.894;2023-02-15T00:48:08;4.50;;;3.30;;
7931;SDS011;4011;49.424;10.894;2023-02-15T00:53:31;5.13;;;3.67;;
7931;SDS011;4011;49.424;10.894;2023-02-15T00:58:52;4.10;;;3.10;;
7931;SDS011;4011;49.424;10.894;2023-02-15T01:04:13;4.70;;;3.67;;
7931;SDS011;4011;49.424;10.894;2023-02-15T01:09:36;4.38;;;3.40;;
7931;SDS011;4011;49.424;10.894;2023-02-15T01:14:57;4.93;;;3.47;;
7931;SDS011;4011;49.424;10.894;2023-02-15T01:20:19;4.28;;;3.25;;
7931;SDS011;4011;49.424;10.894;2023-02-15T01:25:42;4.57;;;3.20;;
7931;SDS011;4011;49.424;10.894;2023-02-15T01:31:07;4.50;;;3.10;;
7931;SDS011;4011;49.424;10.894;2023-02-15T01:36:28;4.45;;;3.30;;
7931;SDS011;4011;49.424;10.894;2023-02-15T01:41:51;3.88;;;2.88;;
7931;SDS011;4011;49.424;10.894;2023-02-15T01:47:14;4.68;;;3.20;;
7931;SDS011;4011;49.424;10.894;2023-02-15T01:52:37;4.25;;;2.95;;
7931;SDS011;4011;49.424;10.894;2023-02-15T01:58:03;4.45;;;3.05;;
7931;SDS011;4011;49.424;10.894;2023-02-15T02:03:27;4.55;;;3.42;;
7931;SDS011;4011;49.424;10.894;2023-02-15T02:08:52;4.35;;;3.25;;
7931;SDS011;4011;49.424;10.894;2023-02-15T02:14:15;4.18;;;3.28;;
7931;SDS011;4011;49.424;10.894;2023-02-15T02:19:46;4.40;;;3.15;;
7931;SDS011;4011;49.424;10.894;2023-02-15T02:25:19;4.10;;;3.03;;
7931;SDS011;4011;49.424;10.894;2023-02-15T02:30:50;3.92;;;3.03;;
7931;SDS011;4011;49.424;10.894;2023-02-15T02:36:18;3.58;;;2.78;;
7931;SDS011;4011;49.424;10.894;2023-02-15T02:41:43;4.10;;;2.85;;
7931;SDS011;4011;49.424;10.894;2023-02-15T02:47:06;4.15;;;3.20;;
7931;SDS011;4011;49.424;10.894;2023-02-15T02:52:41;3.92;;;2.90;;
7931;SDS011;4011;49.424;10.894;2023-02-15T02:58:04;3.83;;;2.90;;
7931;SDS011;4011;49.424;10.894;2023-02-15T03:03:27;3.60;;;2.80;;
7931;SDS011;4011;49.424;10.894;2023-02-15T03:08:53;3.90;;;2.95;;
7931;SDS011;4011;49.424;10.894;2023-02-15T03:14:19;4.05;;;3.00;;
7931;SDS011;4011;49.424;10.894;2023-02-15T03:19:41;3.95;;;2.60;;
7931;SDS011;4011;49.424;10.894;2023-02-15T03:25:08;4.10;;;2.80;;
7931;SDS011;4011;49.424;10.894;2023-02-15T03:30:30;4.35;;;3.05;;
7931;SDS011;4011;49.424;10.894;2023-02-15T03:35:54;4.13;;;3.20;;
7931;SDS011;4011;49.424;10.894;2023-02-15T03:41:19;3.67;;;2.67;;
7931;SDS011;4011;49.424;10.894;2023-02-15T03:46:42;4.07;;;2.95;;
7931;SDS011;4011;49.424;10.894;2023-02-15T03:52:04;4.00;;;2.80;;
7931;SDS011;4011;49.424;10.894;2023-02-15T03:57:28;3.80;;;3.00;;
7931;SDS011;4011;49.424;10.894;2023-02-15T04:03:12;3.60;;;2.67;;
7931;SDS011;4011;49.424;10.894;2023-02-15T04:08:40;4.03;;;2.67;;
7931;SDS011;4011;49.424;10.894;2023-02-15T04:14:26;4.28;;;3.00;;
7931;SDS011;4011;49.424;10.894;2023-02-15T04:20:05;3.67;;;2.67;;
7931;SDS011;4011;49.424;10.894;2023-02-15T04:25:44;4.35;;;2.90;;
7931;SDS011;4011;49.424;10.894;2023-02-15T04:31:07;3.75;;;2.85;;
7931;SDS011;4011;49.424;10.894;2023-02-15T04:36:28;3.97;;;2.75;;
7931;SDS011;4011;49.424;10.894;2023-02-15T04:41:49;4.18;;;3.00;;
7931;SDS011;4011;49.424;10.894;2023-02-15T04:47:12;4.75;;;2.88;;
7931;SDS011;4011;49.424;10.894;2023-02-15T04:52:33;4.03;;;2.85;;
7931;SDS011;4011;49.424;10.894;2023-02-15T04:57:55;3.92;;;3.00;;
7931;SDS011;4011;49.424;10.894;2023-02-15T05:03:17;3.65;;;2.80;;
7931;SDS011;4011;49.424;10.894;2023-02-15T05:08:39;3.90;;;2.80;;
7931;SDS011;4011;49.424;10.894;2023-02-15T05:14:00;3.60;;;2.80;;
7931;SDS011;4011;49.424;10.894;2023-02-15T05:19:23;4.63;;;3.08;;
7931;SDS011;4011;49.424;10.894;2023-02-15T05:24:44;3.75;;;2.78;;
7931;SDS011;4011;49.424;10.894;2023-02-15T05:30:23;4.30;;;2.92;;
7931;SDS011;4011;49.424;10.894;2023-02-15T05:35:46;5.28;;;3.40;;
7931;SDS011;4011;49.424;10.894;2023-02-15T05:41:08;6.93;;;4.10;;
7931;SDS011;4011;49.424;10.894;2023-02-15T05:46:29;5.07;;;3.30;;
7931;SDS011;4011;49.424;10.894;2023-02-15T05:51:52;5.07;;;3.30;;
7931;SDS011;4011;49.424;10.894;2023-02-15T05:57:13;4.53;;;3.25;;
7931;SDS011;4011;49.424;10.894;2023-02-15T06:02:35;6.50;;;3.70;;
7931;SDS011;4011;49.424;10.894;2023-02-15T06:07:58;5.65;;;3.45;;
7931;SDS011;4011;49.424;10.894;2023-02-15T06:13:19;5.43;;;3.40;;
7931;SDS011;4011;49.424;10.894;2023-02-15T06:18:41;4.80;;;3.50;;
7931;SDS011;4011;49.424;10.894;2023-02-15T06:24:04;5.18;;;3.55;;
7931;SDS011;4011;49.424;10.894;2023-02-15T06:29:25;5.53;;;3.55;;
7931;SDS011;4011;49.424;10.894;2023-02-15T06:34:47;5.22;;;3.63;;
7931;SDS011;4011;49.424;10.894;2023-02-15T06:40:10;5.05;;;3.72;;
7931;SDS011;4011;49.424;10.894;2023-02-15T06:45:31;5.10;;;4.03;;
7931;SDS011;4011;49.424;10.894;2023-02-15T06:50:52;5.07;;;3.85;;
7931;SDS011;4011;49.424;10.894;2023-02-15T06:56:15;5.47;;;4.00;;
7931;SDS011;4011;49.424;10.894;2023-02-15T07:01:36;5.38;;;4.05;;
7931;SDS011;4011;49.424;10.894;2023-02-15T07:06:58;5.05;;;3.65;;
7931;SDS011;4011;49.424;10.894;2023-02-15T07:12:20;4.72;;;3.65;;
7931;SDS011;4011;49.424;10.894;2023-02-15T07:17:59;4.63;;;3.50;;
7931;SDS011;4011;49.424;10.894;2023-02-15T07:23:21;4.63;;;3.50;;
7931;SDS011;4011;49.424;10.894;2023-02-15T07:28:43;5.18;;;4.15;;
7931;SDS011;4011;49.424;10.894;2023-02-15T07:34:05;5.43;;;4.05;;
7931;SDS011;4011;49.424;10.894;2023-02-15T07:39:26;5.32;;;4.10;;
7931;SDS011;4011;49.424;10.894;2023-02-15T07:44:49;6.15;;;4.70;;
7931;SDS011;4011;49.424;10.894;2023-02-15T07:50:12;6.22;;;4.63;;
7931;SDS011;4011;49.424;10.894;2023-02-15T07:55:33;5.32;;;4.35;;
7931;SDS011;4011;49.424;10.894;2023-02-15T08:00:56;5.75;;;4.95;;
7931;SDS011;4011;49.424;10.894;2023-02-15T08:06:18;7.28;;;5.18;;
7931;SDS011;4011;49.424;10.894;2023-02-15T08:11:40;6.68;;;5.28;;
7931;SDS011;4011;49.424;10.894;2023-02-15T08:17:02;6.13;;;4.57;;
7931;SDS011;4011;49.424;10.894;2023-02-15T08:22:25;5.90;;;4.70;;
7931;SDS011;4011;49.424;10.894;2023-02-15T08:27:49;5.70;;;4.70;;
7931;SDS011;4011;49.424;10.894;2023-02-15T08:33:12;5.45;;;4.20;;
7931;SDS011;4011;49.424;10.894;2023-02-15T08:38:33;5.50;;;4.10;;
7931;SDS011;4011;49.424;10.894;2023-02-15T08:43:55;6.00;;;4.20;;
7931;SDS011;4011;49.424;10.894;2023-02-15T08:49:20;5.13;;;4.15;;
7931;SDS011;4011;49.424;10.894;2023-02-15T08:54:41;6.05;;;4.00;;
7931;SDS011;4011;49.424;10.894;2023-02-15T09:00:03;5.75;;;4.13;;
7931;SDS011;4011;49.424;10.894;2023-02-15T09:05:27;6.57;;;4.47;;
7931;SDS011;4011;49.424;10.894;2023-02-15T09:10:48;5.18;;;4.10;;
7931;SDS011;4011;49.424;10.894;2023-02-15T09:16:09;4.72;;;3.72;;
7931;SDS011;4011;49.424;10.894;2023-02-15T09:21:33;4.78;;;3.63;;
7931;SDS011;4011;49.424;10.894;2023-02-15T09:26:55;5.63;;;3.70;;
7931;SDS011;4011;49.424;10.894;2023-02-15T09:32:16;4.97;;;3.90;;
7931;SDS011;4011;49.424;10.894;2023-02-15T09:37:39;5.18;;;3.97;;
7931;SDS011;4011;49.424;10.894;2023-02-15T09:43:07;4.53;;;3.33;;
7931;SDS011;4011;49.424;10.894;2023-02-15T09:48:38;4.85;;;3.63;;
7931;SDS011;4011;49.424;10.894;2023-02-15T09:54:06;4.70;;;3.80;;
7931;SDS011;4011;49.424;10.894;2023-02-15T09:59:33;4.60;;;3.42;;
7931;SDS011;4011;49.424;10.894;2023-02-15T10:05:01;4.75;;;3.70;;
7931;SDS011;4011;49.424;10.894;2023-02-15T10:10:30;5.07;;;3.60;;
7931;SDS011;4011;49.424;10.894;2023-02-15T10:16:01;4.85;;;3.53;;
7931;SDS011;4011;49.424;10.894;2023-02-15T10:21:30;5.43;;;4.00;;
7931;SDS011;4011;49.424;10.894;2023-02-15T10:27:01;4.85;;;3.55;;
7931;SDS011;4011;49.424;10.894;2023-02-15T10:32:25;5.43;;;3.63;;
7931;SDS011;4011;49.424;10.894;2023-02-15T10:43:37;5.18;;;3.83;;
7931;SDS011;4011;49.424;10.894;2023-02-15T10:49:09;4.88;;;3.53;;
7931;SDS011;4011;49.424;10.894;2023-02-15T10:55:00;6.10;;;4.20;;
7931;SDS011;4011;49.424;10.894;2023-02-15T11:00:27;5.57;;;4.25;;
7931;SDS011;4011;49.424;10.894;2023-02-15T11:05:56;5.63;;;3.80;;
7931;SDS011;4011;49.424;10.894;2023-02-15T11:11:20;5.57;;;4.13;;
7931;SDS011;4011;49.424;10.894;2023-02-15T11:16:44;5.22;;;4.05;;
7931;SDS011;4011;49.424;10.894;2023-02-15T11:22:06;6.45;;;4.10;;
7931;SDS011;4011;49.424;10.894;2023-02-15T11:27:29;6.22;;;4.22;;
7931;SDS011;4011;49.424;10.894;2023-02-15T11:32:54;5.70;;;4.28;;
7931;SDS011;4011;49.424;10.894;2023-02-15T11:38:18;6.65;;;4.88;;
7931;SDS011;4011;49.424;10.894;2023-02-15T11:43:41;6.18;;;4.90;;
7931;SDS011;4011;49.424;10.894;2023-02-15T11:49:07;7.45;;;4.82;;
7931;SDS011;4011;49.424;10.894;2023-02-15T11:54:54;7.15;;;4.88;;
7931;SDS011;4011;49.424;10.894;2023-02-15T12:00:16;7.28;;;4.95;;
7931;SDS011;4011;49.424;10.894;2023-02-15T12:05:44;7.97;;;5.40;;
7931;SDS011;4011;49.424;10.894;2023-02-15T12:11:33;6.47;;;4.72;;
7931;SDS011;4011;49.424;10.894;2023-02-15T12:16:55;6.72;;;4.95;;
7931;SDS011;4011;49.424;10.894;2023-02-15T12:22:20;7.30;;;5.32;;
7931;SDS011;4011;49.424;10.894;2023-02-15T12:27:43;7.43;;;5.10;;
7931;SDS011;4011;49.424;10.894;2023-02-15T12:33:05;6.93;;;4.82;;
7931;SDS011;4011;49.424;10.894;2023-02-15T12:38:30;7.32;;;4.95;;
7931;SDS011;4011;49.424;10.894;2023-02-15T12:44:02;7.30;;;5.55;;
7931;SDS011;4011;49.424;10.894;2023-02-15T12:49:24;7.10;;;5.07;;
7931;SDS011;4011;49.424;10.894;2023-02-15T12:54:48;6.65;;;4.95;;
7931;SDS011;4011;49.424;10.894;2023-02-15T13:00:24;7.10;;;5.63;;
7931;SDS011;4011;49.424;10.894;2023-02-15T13:05:47;6.70;;;4.85;;
7931;SDS011;4011;49.424;10.894;2023-02-15T13:11:14;6.07;;;4.53;;
7931;SDS011;4011;49.424;10.894;2023-02-15T13:16:40;7.32;;;5.25;;
7931;SDS011;4011;49.424;10.894;2023-02-15T13:22:03;8.05;;;5.32;;
7931;SDS011;4011;49.424;10.894;2023-02-15T13:27:29;7.07;;;4.80;;
7931;SDS011;4011;49.424;10.894;2023-02-15T13:32:54;6.47;;;4.50;;
7931;SDS011;4011;49.424;10.894;2023-02-15T13:38:20;7.28;;;4.68;;
7931;SDS011;4011;49.424;10.894;2023-02-15T13:43:47;6.28;;;4.90;;
7931;SDS011;4011;49.424;10.894;2023-02-15T13:49:14;7.78;;;4.60;;
7931;SDS011;4011;49.424;10.894;2023-02-15T13:54:48;6.90;;;4.57;;
7931;SDS011;4011;49.424;10.894;2023-02-15T14:00:17;7.13;;;4.53;;
7931;SDS011;4011;49.424;10.894;2023-02-15T14:05:57;6.30;;;4.22;;
7931;SDS011;4011;49.424;10.894;2023-02-15T14:11:22;6.38;;;4.63;;
7931;SDS011;4011;49.424;10.894;2023-02-15T14:16:51;6.55;;;4.95;;
7931;SDS011;4011;49.424;10.894;2023-02-15T14:22:18;7.72;;;5.32;;
7931;SDS011;4011;49.424;10.894;2023-02-15T14:27:45;6.78;;;5.20;;
7931;SDS011;4011;49.424;10.894;2023-02-15T14:33:28;7.25;;;5.03;;
7931;SDS011;4011;49.424;10.894;2023-02-15T14:38:52;7.63;;;5.22;;
7931;SDS011;4011;49.424;10.894;2023-02-15T14:44:20;7.72;;;5.65;;
7931;SDS011;4011;49.424;10.894;2023-02-15T14:49:45;8.82;;;5.68;;
7931;SDS011;4011;49.424;10.894;2023-02-15T14:55:07;7.82;;;5.10;;
7931;SDS011;4011;49.424;10.894;2023-02-15T15:06:23;7.10;;;5.20;;
7931;SDS011;4011;49.424;10.894;2023-02-15T15:11:46;8.40;;;5.45;;
7931;SDS011;4011;49.424;10.894;2023-02-15T15:17:09;7.63;;;5.43;;
7931;SDS011;4011;49.424;10.894;2023-02-15T15:22:33;8.60;;;5.93;;
7931;SDS011;4011;49.424;10.894;2023-02-15T15:27:55;7.72;;;5.82;;
7931;SDS011;4011;49.424;10.894;2023-02-15T15:33:25;8.13;;;5.68;;
7931;SDS011;4011;49.424;10.894;2023-02-15T15:38:54;8.27;;;6.00;;
7931;SDS011;4011;49.424;10.894;2023-02-15T15:50:11;9.07;;;5.95;;
7931;SDS011;4011;49.424;10.894;2023-02-15T15:55:34;7.53;;;5.82;;
7931;SDS011;4011;49.424;10.894;2023-02-15T16:00:58;8.30;;;5.80;;
7931;SDS011;4011;49.424;10.894;2023-02-15T16:06:27;7.07;;;5.43;;
7931;SDS011;4011;49.424;10.894;2023-02-15T16:11:51;7.90;;;5.63;;
7931;SDS011;4011;49.424;10.894;2023-02-15T16:17:14;8.93;;;5.72;;
7931;SDS011;4011;49.424;10.894;2023-02-15T16:22:38;8.10;;;5.90;;
7931;SDS011;4011;49.424;10.894;2023-02-15T16:28:06;8.35;;;5.75;;
7931;SDS011;4011;49.424;10.894;2023-02-15T16:33:33;8.13;;;5.57;;
7931;SDS011;4011;49.424;10.894;2023-02-15T16:39:09;7.60;;;5.60;;
7931;SDS011;4011;49.424;10.894;2023-02-15T16:44:32;7.43;;;5.75;;
7931;SDS011;4011;49.424;10.894;2023-02-15T16:49:54;7.03;;;5.40;;
7931;SDS011;4011;49.424;10.894;2023-02-15T16:55:19;8.07;;;5.22;;
7931;SDS011;4011;49.424;10.894;2023-02-15T17:00:43;6.85;;;5.22;;
7931;SDS011;4011;49.424;10.894;2023-02-15T17:06:04;8.07;;;5.60;;
7931;SDS011;4011;49.424;10.894;2023-02-15T17:11:39;7.38;;;5.65;;
7931;SDS011;4011;49.424;10.894;2023-02-15T17:17:05;7.50;;;5.40;;
7931;SDS011;4011;49.424;10.894;2023-02-15T17:22:27;7.65;;;5.93;;
7931;SDS011;4011;49.424;10.894;2023-02-15T17:27:50;6.95;;;5.18;;
7931;SDS011;4011;49.424;10.894;2023-02-15T17:33:20;8.35;;;5.97;;
7931;SDS011;4011;49.424;10.894;2023-02-15T17:39:00;7.38;;;5.65;;
7931;SDS011;4011;49.424;10.894;2023-02-15T17:44:21;7.38;;;5.40;;
7931;SDS011;4011;49.424;10.894;2023-02-15T17:49:44;7.78;;;5.78;;
7931;SDS011;4011;49.424;10.894;2023-02-15T17:55:07;7.93;;;6.18;;
7931;SDS011;4011;49.424;10.894;2023-02-15T18:00:47;8.38;;;6.57;;
7931;SDS011;4011;49.424;10.894;2023-02-15T18:06:28;8.95;;;6.53;;
7931;SDS011;4011;49.424;10.894;2023-02-15T18:12:13;8.02;;;6.15;;
7931;SDS011;4011;49.424;10.894;2023-02-15T18:17:39;9.25;;;6.70;;
7931;SDS011;4011;49.424;10.894;2023-02-15T18:23:04;9.00;;;6.97;;
7931;SDS011;4011;49.424;10.894;2023-02-15T18:28:26;8.73;;;7.03;;
7931;SDS011;4011;49.424;10.894;2023-02-15T18:33:47;10.30;;;7.03;;
7931;SDS011;4011;49.424;10.894;2023-02-15T18:39:19;9.48;;;7.60;;
7931;SDS011;4011;49.424;10.894;2023-02-15T18:44:43;8.80;;;7.78;;
7931;SDS011;4011;49.424;10.894;2023-02-15T18:50:05;9.95;;;7.85;;
7931;SDS011;4011;49.424;10.894;2023-02-15T18:55:28;10.00;;;8.40;;
7931;SDS011;4011;49.424;10.894;2023-02-15T19:00:51;9.93;;;7.88;;
7931;SDS011;4011;49.424;10.894;2023-02-15T19:06:14;9.98;;;7.82;;
7931;SDS011;4011;49.424;10.894;2023-02-15T19:11:37;11.13;;;8.80;;
7931;SDS011;4011;49.424;10.894;2023-02-15T19:16:58;9.77;;;8.38;;
7931;SDS011;4011;49.424;10.894;2023-02-15T19:22:21;10.45;;;8.75;;
7931;SDS011;4011;49.424;10.894;2023-02-15T19:27:46;11.63;;;8.95;;
7931;SDS011;4011;49.424;10.894;2023-02-15T19:33:08;10.35;;;9.05;;
7931;SDS011;4011;49.424;10.894;2023-02-15T19:38:35;11.05;;;9.15;;
7931;SDS011;4011;49.424;10.894;2023-02-15T19:43:58;12.00;;;9.77;;
7931;SDS011;4011;49.424;10.894;2023-02-15T19:49:20;12.02;;;9.88;;
7931;SDS011;4011;49.424;10.894;2023-02-15T19:54:41;10.63;;;9.13;;
7931;SDS011;4011;49.424;10.894;2023-02-15T20:00:09;11.38;;;9.23;;
7931;SDS011;4011;49.424;10.894;2023-02-15T20:05:37;10.88;;;8.82;;
7931;SDS011;4011;49.424;10.894;2023-02-15T20:10:58;10.45;;;8.95;;
7931;SDS011;4011;49.424;10.894;2023-02-15T20:16:21;9.57;;;8.15;;
7931;SDS011;4011;49.424;10.894;2023-02-15T20:21:46;9.15;;;7.97;;
7931;SDS011;4011;49.424;10.894;2023-02-15T20:27:13;10.32;;;7.93;;
7931;SDS011;4011;49.424;10.894;2023-02-15T20:32:43;8.98;;;7.65;;
7931;SDS011;4011;49.424;10.894;2023-02-15T20:44:16;10.27;;;7.78;;
7931;SDS011;4011;49.424;10.894;2023-02-15T20:49:57;9.32;;;7.60;;
7931;SDS011;4011;49.424;10.894;2023-02-15T20:55:19;9.10;;;7.75;;
7931;SDS011;4011;49.424;10.894;2023-02-15T21:00:41;9.45;;;7.53;;
7931;SDS011;4011;49.424;10.894;2023-02-15T21:06:04;8.80;;;7.40;;
7931;SDS011;4011;49.424;10.894;2023-02-15T21:11:25;9.25;;;6.90;;
7931;SDS011;4011;49.424;10.894;2023-02-15T21:16:47;8.68;;;6.78;;
7931;SDS011;4011;49.424;10.894;2023-02-15T21:22:11;8.07;;;6.47;;
7931;SDS011;4011;49.424;10.894;2023-02-15T21:27:33;7.55;;;6.20;;
7931;SDS011;4011;49.424;10.894;2023-02-15T21:32:54;8.25;;;7.10;;
7931;SDS011;4011;49.424;10.894;2023-02-15T21:38:18;8.25;;;6.45;;
7931;SDS011;4011;49.424;10.894;2023-02-15T21:43:41;7.47;;;5.97;;
7931;SDS011;4011;49.424;10.894;2023-02-15T21:49:19;7.55;;;6.28;;
7931;SDS011;4011;49.424;10.894;2023-02-15T21:54:42;7.10;;;6.10;;
7931;SDS011;4011;49.424;10.894;2023-02-15T22:00:04;8.18;;;6.53;;
7931;SDS011;4011;49.424;10.894;2023-02-15T22:05:28;8.07;;;5.97;;
7931;SDS011;4011;49.424;10.894;2023-02-15T22:10:51;7.45;;;5.78;;
7931;SDS011;4011;49.424;10.894;2023-02-15T22:16:14;7.47;;;5.55;;
7931;SDS011;4011;49.424;10.894;2023-02-15T22:21:36;8.18;;;5.57;;
7931;SDS011;4011;49.424;10.894;2023-02-15T22:26:59;6.82;;;5.45;;
7931;SDS011;4011;49.424;10.894;2023-02-15T22:32:21;6.60;;;5.63;;
7931;SDS011;4011;49.424;10.894;2023-02-15T22:37:42;7.20;;;5.80;;
7931;SDS011;4011;49.424;10.894;2023-02-15T22:43:05;7.00;;;5.20;;
7931;SDS011;4011;49.424;10.894;2023-02-15T22:48:30;6.82;;;5.70;;
7931;SDS011;4011;49.424;10.894;2023-02-15T22:53:52;6.75;;;5.05;;
7931;SDS011;4011;49.424;10.894;2023-02-15T22:59:17;6.45;;;5.20;;
7931;SDS011;4011;49.424;10.894;2023-02-15T23:04:40;6.47;;;4.95;;
7931;SDS011;4011;49.424;10.894;2023-02-15T23:10:02;5.82;;;4.97;;
7931;SDS011;4011;49.424;10.894;2023-02-15T23:15:24;6.15;;;4.57;;
7931;SDS011;4011;49.424;10.894;2023-02-15T23:20:47;5.95;;;4.72;;
7931;SDS011;4011;49.424;10.894;2023-02-15T23:26:11;6.78;;;4.88;;
7931;SDS011;4011;49.424;10.894;2023-02-15T23:31:36;6.00;;;4.65;;
7931;SDS011;4011;49.424;10.894;2023-02-15T23:36:59;6.10;;;4.80;;
7931;SDS011;4011;49.424;10.894;2023-02-15T23:42:22;6.25;;;4.57;;
7931;SDS011;4011;49.424;10.894;2023-02-15T23:47:46;5.63;;;4.40;;
7931;SDS011;4011;49.424;10.894;2023-02-15T23:53:25;5.68;;;4.45;;
7931;SDS011;4011;49.424;10.894;2023-02-15T23:58:46;6.28;;;4.65;;
